sensor_id;sensor_type;location;lat;lon;timestamp;temperature;humidity
38480;DHT22;62333;51.980;5.934;2023-10-08T00:00:04;20.90;81.40
38480;DHT22;62333;51.980;5.934;2023-10-08T00:02:50;20.90;81.50
38480;DHT22;62333;51.980;5.934;2023-10-08T00:05:15;20.90;81.50
38480;DHT22;62333;51.980;5.934;2023-10-08T00:07:42;20.90;81.70
38480;DHT22;62333;51.980;5.934;2023-10-08T00:10:09;20.90;81.80
38480;DHT22;62333;51.980;5.934;2023-10-08T00:12:34;20.90;82.00
38480;DHT22;62333;51.980;5.934;2023-10-08T00:15:00;20.90;82.10
38480;DHT22;62333;51.980;5.934;2023-10-08T00:17:26;21.00;82.30
38480;DHT22;62333;51.980;5.934;2023-10-08T00:19:52;20.90;82.40
38480;DHT22;62333;51.980;5.934;2023-10-08T00:22:18;20.90;82.50
38480;DHT22;62333;51.980;5.934;2023-10-08T00:24:45;20.90;82.50
38480;DHT22;62333;51.980;5.934;2023-10-08T00:27:20;20.90;82.70
38480;DHT22;62333;51.980;5.934;2023-10-08T00:29:47;20.90;82.80
38480;DHT22;62333;51.980;5.934;2023-10-08T00:32:13;20.90;82.80
38480;DHT22;62333;51.980;5.934;2023-10-08T00:34:42;20.90;82.90
38480;DHT22;62333;51.980;5.934;2023-10-08T00:37:09;20.90;82.90
38480;DHT22;62333;51.980;5.934;2023-10-08T00:39:36;20.90;83.10
38480;DHT22;62333;51.980;5.934;2023-10-08T00:42:03;20.90;83.10
38480;DHT22;62333;51.980;5.934;2023-10-08T00:44:36;20.90;83.20
38480;DHT22;62333;51.980;5.934;2023-10-08T00:47:22;21.00;83.30
38480;DHT22;62333;51.980;5.934;2023-10-08T00:49:51;20.90;83.30
38480;DHT22;62333;51.980;5.934;2023-10-08T00:52:33;20.90;83.40
38480;DHT22;62333;51.980;5.934;2023-10-08T00:55:22;20.90;83.50
38480;DHT22;62333;51.980;5.934;2023-10-08T00:57:57;20.90;83.70
38480;DHT22;62333;51.980;5.934;2023-10-08T01:00:24;20.90;83.70
38480;DHT22;62333;51.980;5.934;2023-10-08T01:02:58;20.90;83.70
38480;DHT22;62333;51.980;5.934;2023-10-08T01:05:26;20.90;83.70
38480;DHT22;62333;51.980;5.934;2023-10-08T01:08:09;21.00;83.70
38480;DHT22;62333;51.980;5.934;2023-10-08T01:10:40;21.00;83.70
38480;DHT22;62333;51.980;5.934;2023-10-08T01:13:09;21.00;83.60
38480;DHT22;62333;51.980;5.934;2023-10-08T01:15:41;21.00;83.50
38480;DHT22;62333;51.980;5.934;2023-10-08T01:18:09;21.00;83.50
38480;DHT22;62333;51.980;5.934;2023-10-08T01:20:44;21.00;83.50
38480;DHT22;62333;51.980;5.934;2023-10-08T01:23:13;21.00;83.50
38480;DHT22;62333;51.980;5.934;2023-10-08T01:25:39;21.00;83.50
38480;DHT22;62333;51.980;5.934;2023-10-08T01:28:07;21.00;83.50
38480;DHT22;62333;51.980;5.934;2023-10-08T01:30:55;21.00;83.60
38480;DHT22;62333;51.980;5.934;2023-10-08T01:33:22;21.00;83.60
38480;DHT22;62333;51.980;5.934;2023-10-08T01:35:52;20.90;83.80
38480;DHT22;62333;51.980;5.934;2023-10-08T01:38:17;20.90;83.90
38480;DHT22;62333;51.980;5.934;2023-10-08T01:40:49;20.90;83.90
38480;DHT22;62333;51.980;5.934;2023-10-08T01:43:18;20.90;83.90
38480;DHT22;62333;51.980;5.934;2023-10-08T01:45:44;20.90;83.80
38480;DHT22;62333;51.980;5.934;2023-10-08T01:48:14;20.90;83.70
38480;DHT22;62333;51.980;5.934;2023-10-08T01:50:39;20.90;83.90
38480;DHT22;62333;51.980;5.934;2023-10-08T01:53:05;20.90;83.90
38480;DHT22;62333;51.980;5.934;2023-10-08T01:55:34;20.90;83.90
38480;DHT22;62333;51.980;5.934;2023-10-08T01:58:15;20.90;84.00
38480;DHT22;62333;51.980;5.934;2023-10-08T02:00:45;20.90;84.00
38480;DHT22;62333;51.980;5.934;2023-10-08T02:03:12;20.90;83.90
38480;DHT22;62333;51.980;5.934;2023-10-08T02:05:43;20.90;83.80
38480;DHT22;62333;51.980;5.934;2023-10-08T02:08:13;20.90;83.80
38480;DHT22;62333;51.980;5.934;2023-10-08T02:10:40;21.00;83.80
38480;DHT22;62333;51.980;5.934;2023-10-08T02:13:09;21.00;83.80
38480;DHT22;62333;51.980;5.934;2023-10-08T02:15:43;21.00;83.80
38480;DHT22;62333;51.980;5.934;2023-10-08T02:18:09;21.00;83.80
38480;DHT22;62333;51.980;5.934;2023-10-08T02:20:35;20.90;83.70
38480;DHT22;62333;51.980;5.934;2023-10-08T02:23:00;21.00;83.80
38480;DHT22;62333;51.980;5.934;2023-10-08T02:25:27;20.90;83.60
38480;DHT22;62333;51.980;5.934;2023-10-08T02:27:53;21.00;83.70
38480;DHT22;62333;51.980;5.934;2023-10-08T02:30:18;21.00;83.70
38480;DHT22;62333;51.980;5.934;2023-10-08T02:32:44;20.90;83.50
38480;DHT22;62333;51.980;5.934;2023-10-08T02:35:12;21.00;83.50
38480;DHT22;62333;51.980;5.934;2023-10-08T02:37:39;20.90;83.50
38480;DHT22;62333;51.980;5.934;2023-10-08T02:40:11;20.90;83.40
38480;DHT22;62333;51.980;5.934;2023-10-08T02:42:56;20.90;83.40
38480;DHT22;62333;51.980;5.934;2023-10-08T02:45:27;20.90;83.50
38480;DHT22;62333;51.980;5.934;2023-10-08T02:47:54;21.00;84.00
38480;DHT22;62333;51.980;5.934;2023-10-08T02:50:20;21.00;83.30
38480;DHT22;62333;51.980;5.934;2023-10-08T02:52:48;21.00;83.20
38480;DHT22;62333;51.980;5.934;2023-10-08T02:55:16;20.90;83.30
38480;DHT22;62333;51.980;5.934;2023-10-08T02:58:02;20.90;83.40
38480;DHT22;62333;51.980;5.934;2023-10-08T03:00:28;20.90;83.30
38480;DHT22;62333;51.980;5.934;2023-10-08T03:03:01;20.90;83.40
38480;DHT22;62333;51.980;5.934;2023-10-08T03:05:35;20.90;83.30
38480;DHT22;62333;51.980;5.934;2023-10-08T03:08:04;20.80;83.30
38480;DHT22;62333;51.980;5.934;2023-10-08T03:10:39;20.80;83.40
38480;DHT22;62333;51.980;5.934;2023-10-08T03:13:07;20.80;83.40
38480;DHT22;62333;51.980;5.934;2023-10-08T03:15:35;20.80;83.70
38480;DHT22;62333;51.980;5.934;2023-10-08T03:18:13;20.80;83.70
38480;DHT22;62333;51.980;5.934;2023-10-08T03:20:42;20.80;83.60
38480;DHT22;62333;51.980;5.934;2023-10-08T03:23:12;20.80;83.60
38480;DHT22;62333;51.980;5.934;2023-10-08T03:25:56;20.80;83.60
38480;DHT22;62333;51.980;5.934;2023-10-08T03:28:24;20.80;83.50
38480;DHT22;62333;51.980;5.934;2023-10-08T03:30:51;20.80;83.30
38480;DHT22;62333;51.980;5.934;2023-10-08T03:33:21;20.80;83.30
38480;DHT22;62333;51.980;5.934;2023-10-08T03:35:52;20.80;83.30
38480;DHT22;62333;51.980;5.934;2023-10-08T03:38:21;20.70;83.30
38480;DHT22;62333;51.980;5.934;2023-10-08T03:40:54;20.70;83.10
38480;DHT22;62333;51.980;5.934;2023-10-08T03:43:22;20.70;83.00
38480;DHT22;62333;51.980;5.934;2023-10-08T03:46:00;20.70;83.00
38480;DHT22;62333;51.980;5.934;2023-10-08T03:48:32;20.70;82.90
38480;DHT22;62333;51.980;5.934;2023-10-08T03:51:02;20.70;82.80
38480;DHT22;62333;51.980;5.934;2023-10-08T03:53:35;20.70;82.70
38480;DHT22;62333;51.980;5.934;2023-10-08T03:56:08;20.60;82.60
38480;DHT22;62333;51.980;5.934;2023-10-08T03:58:34;20.60;82.50
38480;DHT22;62333;51.980;5.934;2023-10-08T04:01:06;20.60;83.00
38480;DHT22;62333;51.980;5.934;2023-10-08T04:03:37;20.60;82.40
38480;DHT22;62333;51.980;5.934;2023-10-08T04:06:20;20.60;82.30
38480;DHT22;62333;51.980;5.934;2023-10-08T04:08:55;20.60;82.30
38480;DHT22;62333;51.980;5.934;2023-10-08T04:11:38;20.60;82.30
38480;DHT22;62333;51.980;5.934;2023-10-08T04:14:25;20.60;82.20
38480;DHT22;62333;51.980;5.934;2023-10-08T04:16:53;20.60;82.40
38480;DHT22;62333;51.980;5.934;2023-10-08T04:19:20;20.60;82.10
38480;DHT22;62333;51.980;5.934;2023-10-08T04:21:47;20.60;82.20
38480;DHT22;62333;51.980;5.934;2023-10-08T04:24:21;20.60;82.20
38480;DHT22;62333;51.980;5.934;2023-10-08T04:26:54;20.60;82.30
38480;DHT22;62333;51.980;5.934;2023-10-08T04:29:22;20.60;82.30
38480;DHT22;62333;51.980;5.934;2023-10-08T04:31:49;20.60;82.40
38480;DHT22;62333;51.980;5.934;2023-10-08T04:34:26;20.60;82.50
38480;DHT22;62333;51.980;5.934;2023-10-08T04:36:53;20.40;82.50
38480;DHT22;62333;51.980;5.934;2023-10-08T04:39:27;20.30;82.60
38480;DHT22;62333;51.980;5.934;2023-10-08T04:42:02;20.10;82.80
38480;DHT22;62333;51.980;5.934;2023-10-08T04:44:38;20.00;82.90
38480;DHT22;62333;51.980;5.934;2023-10-08T04:47:06;19.90;82.90
38480;DHT22;62333;51.980;5.934;2023-10-08T04:49:32;19.80;82.80
38480;DHT22;62333;51.980;5.934;2023-10-08T04:52:05;19.80;82.90
38480;DHT22;62333;51.980;5.934;2023-10-08T04:54:39;19.70;82.60
38480;DHT22;62333;51.980;5.934;2023-10-08T04:57:07;19.60;82.50
38480;DHT22;62333;51.980;5.934;2023-10-08T04:59:41;19.60;82.40
38480;DHT22;62333;51.980;5.934;2023-10-08T05:02:07;19.60;82.40
38480;DHT22;62333;51.980;5.934;2023-10-08T05:04:47;19.50;82.40
38480;DHT22;62333;51.980;5.934;2023-10-08T05:07:25;19.50;82.30
38480;DHT22;62333;51.980;5.934;2023-10-08T05:10:07;19.50;82.10
38480;DHT22;62333;51.980;5.934;2023-10-08T05:12:33;19.50;82.10
38480;DHT22;62333;51.980;5.934;2023-10-08T05:15:16;19.40;82.10
38480;DHT22;62333;51.980;5.934;2023-10-08T05:17:46;19.40;82.20
38480;DHT22;62333;51.980;5.934;2023-10-08T05:20:23;19.40;82.10
38480;DHT22;62333;51.980;5.934;2023-10-08T05:23:10;19.30;82.20
38480;DHT22;62333;51.980;5.934;2023-10-08T05:25:48;19.30;82.50
38480;DHT22;62333;51.980;5.934;2023-10-08T05:28:38;19.30;82.20
38480;DHT22;62333;51.980;5.934;2023-10-08T05:31:22;19.40;82.20
38480;DHT22;62333;51.980;5.934;2023-10-08T05:34:05;19.30;82.20
38480;DHT22;62333;51.980;5.934;2023-10-08T05:36:44;19.20;82.20
38480;DHT22;62333;51.980;5.934;2023-10-08T05:39:24;19.20;82.40
38480;DHT22;62333;51.980;5.934;2023-10-08T05:41:51;19.00;82.60
38480;DHT22;62333;51.980;5.934;2023-10-08T05:44:17;18.80;82.90
38480;DHT22;62333;51.980;5.934;2023-10-08T05:46:43;18.70;83.30
38480;DHT22;62333;51.980;5.934;2023-10-08T05:49:22;18.70;83.50
38480;DHT22;62333;51.980;5.934;2023-10-08T05:51:57;18.60;83.60
38480;DHT22;62333;51.980;5.934;2023-10-08T05:54:30;18.60;83.70
38480;DHT22;62333;51.980;5.934;2023-10-08T05:57:06;18.60;83.70
38480;DHT22;62333;51.980;5.934;2023-10-08T05:59:36;18.60;83.50
38480;DHT22;62333;51.980;5.934;2023-10-08T06:02:19;18.60;83.30
38480;DHT22;62333;51.980;5.934;2023-10-08T06:05:01;18.50;83.30
38480;DHT22;62333;51.980;5.934;2023-10-08T06:07:51;18.40;83.30
38480;DHT22;62333;51.980;5.934;2023-10-08T06:10:21;18.30;83.30
38480;DHT22;62333;51.980;5.934;2023-10-08T06:13:06;18.30;83.40
38480;DHT22;62333;51.980;5.934;2023-10-08T06:15:49;18.30;83.40
38480;DHT22;62333;51.980;5.934;2023-10-08T06:18:32;18.30;83.20
38480;DHT22;62333;51.980;5.934;2023-10-08T06:21:02;18.20;83.40
38480;DHT22;62333;51.980;5.934;2023-10-08T06:23:36;18.20;83.40
38480;DHT22;62333;51.980;5.934;2023-10-08T06:26:03;18.20;83.40
38480;DHT22;62333;51.980;5.934;2023-10-08T06:28:44;18.10;83.20
38480;DHT22;62333;51.980;5.934;2023-10-08T06:31:10;18.20;83.20
38480;DHT22;62333;51.980;5.934;2023-10-08T06:33:43;18.10;83.10
38480;DHT22;62333;51.980;5.934;2023-10-08T06:36:10;18.10;83.00
38480;DHT22;62333;51.980;5.934;2023-10-08T06:38:42;18.00;83.00
38480;DHT22;62333;51.980;5.934;2023-10-08T06:41:10;18.00;83.00
38480;DHT22;62333;51.980;5.934;2023-10-08T06:43:48;18.00;83.10
38480;DHT22;62333;51.980;5.934;2023-10-08T06:46:15;18.00;83.00
38480;DHT22;62333;51.980;5.934;2023-10-08T06:48:45;17.90;83.00
38480;DHT22;62333;51.980;5.934;2023-10-08T06:51:12;17.80;83.10
38480;DHT22;62333;51.980;5.934;2023-10-08T06:53:45;17.90;83.10
38480;DHT22;62333;51.980;5.934;2023-10-08T06:56:14;17.90;82.90
38480;DHT22;62333;51.980;5.934;2023-10-08T06:58:42;17.80;82.80
38480;DHT22;62333;51.980;5.934;2023-10-08T07:01:19;17.80;82.90
38480;DHT22;62333;51.980;5.934;2023-10-08T07:03:48;17.70;83.00
38480;DHT22;62333;51.980;5.934;2023-10-08T07:06:14;17.70;83.10
38480;DHT22;62333;51.980;5.934;2023-10-08T07:08:52;17.80;83.10
38480;DHT22;62333;51.980;5.934;2023-10-08T07:11:21;17.90;82.90
38480;DHT22;62333;51.980;5.934;2023-10-08T07:13:48;17.80;82.80
38480;DHT22;62333;51.980;5.934;2023-10-08T07:16:14;17.80;82.80
38480;DHT22;62333;51.980;5.934;2023-10-08T07:18:43;17.90;82.90
38480;DHT22;62333;51.980;5.934;2023-10-08T07:21:18;17.80;82.80
38480;DHT22;62333;51.980;5.934;2023-10-08T07:23:49;17.80;82.80
38480;DHT22;62333;51.980;5.934;2023-10-08T07:26:30;17.90;82.90
38480;DHT22;62333;51.980;5.934;2023-10-08T07:29:03;17.90;82.70
38480;DHT22;62333;51.980;5.934;2023-10-08T07:31:37;17.90;82.70
38480;DHT22;62333;51.980;5.934;2023-10-08T07:34:23;17.90;82.70
38480;DHT22;62333;51.980;5.934;2023-10-08T07:36:50;17.90;82.60
38480;DHT22;62333;51.980;5.934;2023-10-08T07:39:21;18.00;82.50
38480;DHT22;62333;51.980;5.934;2023-10-08T07:41:56;18.00;82.40
38480;DHT22;62333;51.980;5.934;2023-10-08T07:44:23;18.00;82.50
38480;DHT22;62333;51.980;5.934;2023-10-08T07:46:50;18.00;82.30
38480;DHT22;62333;51.980;5.934;2023-10-08T07:49:16;18.00;82.20
38480;DHT22;62333;51.980;5.934;2023-10-08T07:51:43;18.00;82.30
38480;DHT22;62333;51.980;5.934;2023-10-08T07:54:23;18.00;82.20
38480;DHT22;62333;51.980;5.934;2023-10-08T07:56:50;17.90;82.20
38480;DHT22;62333;51.980;5.934;2023-10-08T07:59:22;17.80;82.40
38480;DHT22;62333;51.980;5.934;2023-10-08T08:01:50;17.80;82.50
38480;DHT22;62333;51.980;5.934;2023-10-08T08:04:17;17.80;82.50
38480;DHT22;62333;51.980;5.934;2023-10-08T08:06:51;17.80;82.60
38480;DHT22;62333;51.980;5.934;2023-10-08T08:09:18;17.80;82.80
38480;DHT22;62333;51.980;5.934;2023-10-08T08:11:49;17.70;83.00
38480;DHT22;62333;51.980;5.934;2023-10-08T08:14:16;17.70;83.30
38480;DHT22;62333;51.980;5.934;2023-10-08T08:16:50;17.60;83.40
38480;DHT22;62333;51.980;5.934;2023-10-08T08:19:17;17.60;83.60
38480;DHT22;62333;51.980;5.934;2023-10-08T08:21:45;17.60;83.80
38480;DHT22;62333;51.980;5.934;2023-10-08T08:24:14;17.60;83.90
38480;DHT22;62333;51.980;5.934;2023-10-08T08:26:57;17.60;84.10
38480;DHT22;62333;51.980;5.934;2023-10-08T08:29:37;17.60;84.40
38480;DHT22;62333;51.980;5.934;2023-10-08T08:32:10;17.60;84.50
38480;DHT22;62333;51.980;5.934;2023-10-08T08:34:44;17.60;84.40
38480;DHT22;62333;51.980;5.934;2023-10-08T08:37:13;17.70;84.50
38480;DHT22;62333;51.980;5.934;2023-10-08T08:39:39;17.70;84.60
38480;DHT22;62333;51.980;5.934;2023-10-08T08:42:07;17.70;84.90
38480;DHT22;62333;51.980;5.934;2023-10-08T08:44:38;17.70;85.00
38480;DHT22;62333;51.980;5.934;2023-10-08T08:47:05;17.80;85.00
38480;DHT22;62333;51.980;5.934;2023-10-08T08:49:36;17.80;85.00
38480;DHT22;62333;51.980;5.934;2023-10-08T08:52:05;17.80;84.80
38480;DHT22;62333;51.980;5.934;2023-10-08T08:54:31;17.80;84.80
38480;DHT22;62333;51.980;5.934;2023-10-08T08:57:00;17.70;84.80
38480;DHT22;62333;51.980;5.934;2023-10-08T08:59:30;17.60;84.80
38480;DHT22;62333;51.980;5.934;2023-10-08T09:01:58;17.60;84.90
38480;DHT22;62333;51.980;5.934;2023-10-08T09:04:31;17.70;84.60
38480;DHT22;62333;51.980;5.934;2023-10-08T09:07:01;17.80;84.40
38480;DHT22;62333;51.980;5.934;2023-10-08T09:09:36;17.80;84.20
38480;DHT22;62333;51.980;5.934;2023-10-08T09:12:10;17.80;84.00
38480;DHT22;62333;51.980;5.934;2023-10-08T09:14:36;17.80;83.60
38480;DHT22;62333;51.980;5.934;2023-10-08T09:17:04;17.80;83.00
38480;DHT22;62333;51.980;5.934;2023-10-08T09:19:36;17.80;82.70
38480;DHT22;62333;51.980;5.934;2023-10-08T09:22:11;17.90;82.50
38480;DHT22;62333;51.980;5.934;2023-10-08T09:24:39;17.90;82.50
38480;DHT22;62333;51.980;5.934;2023-10-08T09:27:11;17.90;82.50
38480;DHT22;62333;51.980;5.934;2023-10-08T09:29:41;18.00;82.30
38480;DHT22;62333;51.980;5.934;2023-10-08T09:32:11;18.10;81.70
38480;DHT22;62333;51.980;5.934;2023-10-08T09:34:39;18.10;81.70
38480;DHT22;62333;51.980;5.934;2023-10-08T09:37:05;18.10;81.80
38480;DHT22;62333;51.980;5.934;2023-10-08T09:39:33;18.10;81.40
38480;DHT22;62333;51.980;5.934;2023-10-08T09:42:02;18.10;81.10
38480;DHT22;62333;51.980;5.934;2023-10-08T09:44:29;18.10;81.00
38480;DHT22;62333;51.980;5.934;2023-10-08T09:47:06;18.00;80.60
38480;DHT22;62333;51.980;5.934;2023-10-08T09:49:55;18.00;80.30
38480;DHT22;62333;51.980;5.934;2023-10-08T09:52:26;18.00;80.30
38480;DHT22;62333;51.980;5.934;2023-10-08T09:55:08;18.00;80.60
38480;DHT22;62333;51.980;5.934;2023-10-08T09:57:37;18.00;80.50
38480;DHT22;62333;51.980;5.934;2023-10-08T10:00:07;18.10;80.60
38480;DHT22;62333;51.980;5.934;2023-10-08T10:02:55;18.20;80.40
38480;DHT22;62333;51.980;5.934;2023-10-08T10:05:21;18.20;80.20
38480;DHT22;62333;51.980;5.934;2023-10-08T10:07:49;18.20;80.00
38480;DHT22;62333;51.980;5.934;2023-10-08T10:10:28;18.30;79.80
38480;DHT22;62333;51.980;5.934;2023-10-08T10:13:00;18.30;79.30
38480;DHT22;62333;51.980;5.934;2023-10-08T10:15:26;18.20;79.40
38480;DHT22;62333;51.980;5.934;2023-10-08T10:17:54;18.20;79.40
38480;DHT22;62333;51.980;5.934;2023-10-08T10:20:23;18.20;79.40
38480;DHT22;62333;51.980;5.934;2023-10-08T10:22:50;18.30;79.40
38480;DHT22;62333;51.980;5.934;2023-10-08T10:25:16;18.40;79.50
38480;DHT22;62333;51.980;5.934;2023-10-08T10:30:24;18.50;79.20
38480;DHT22;62333;51.980;5.934;2023-10-08T10:32:53;18.50;79.40
38480;DHT22;62333;51.980;5.934;2023-10-08T10:35:19;18.50;78.90
38480;DHT22;62333;51.980;5.934;2023-10-08T10:37:48;18.60;78.60
38480;DHT22;62333;51.980;5.934;2023-10-08T10:40:20;18.60;78.40
38480;DHT22;62333;51.980;5.934;2023-10-08T10:42:56;18.50;78.80
38480;DHT22;62333;51.980;5.934;2023-10-08T10:45:22;18.60;78.50
38480;DHT22;62333;51.980;5.934;2023-10-08T10:48:07;18.60;78.10
38480;DHT22;62333;51.980;5.934;2023-10-08T10:50:50;18.60;78.00
38480;DHT22;62333;51.980;5.934;2023-10-08T10:53:39;18.70;78.00
38480;DHT22;62333;51.980;5.934;2023-10-08T10:56:23;18.80;77.20
38480;DHT22;62333;51.980;5.934;2023-10-08T10:59:05;18.70;77.20
38480;DHT22;62333;51.980;5.934;2023-10-08T11:01:51;18.70;77.30
38480;DHT22;62333;51.980;5.934;2023-10-08T11:04:34;18.80;77.30
38480;DHT22;62333;51.980;5.934;2023-10-08T11:07:16;18.80;77.30
38480;DHT22;62333;51.980;5.934;2023-10-08T11:09:43;19.00;77.20
38480;DHT22;62333;51.980;5.934;2023-10-08T11:12:12;19.00;76.70
38480;DHT22;62333;51.980;5.934;2023-10-08T11:14:42;19.00;76.40
38480;DHT22;62333;51.980;5.934;2023-10-08T11:17:17;19.00;76.20
38480;DHT22;62333;51.980;5.934;2023-10-08T11:19:44;19.00;76.00
38480;DHT22;62333;51.980;5.934;2023-10-08T11:22:12;19.00;76.00
38480;DHT22;62333;51.980;5.934;2023-10-08T11:24:45;19.00;75.90
38480;DHT22;62333;51.980;5.934;2023-10-08T11:27:17;18.90;75.80
38480;DHT22;62333;51.980;5.934;2023-10-08T11:29:54;18.90;75.50
38480;DHT22;62333;51.980;5.934;2023-10-08T11:32:24;18.90;75.80
38480;DHT22;62333;51.980;5.934;2023-10-08T11:34:58;18.80;75.90
38480;DHT22;62333;51.980;5.934;2023-10-08T11:37:29;18.90;76.00
38480;DHT22;62333;51.980;5.934;2023-10-08T11:39:55;18.90;76.00
38480;DHT22;62333;51.980;5.934;2023-10-08T11:42:24;19.00;76.00
38480;DHT22;62333;51.980;5.934;2023-10-08T11:45:02;19.00;76.00
38480;DHT22;62333;51.980;5.934;2023-10-08T11:47:46;19.00;76.00
38480;DHT22;62333;51.980;5.934;2023-10-08T11:50:27;19.10;75.90
38480;DHT22;62333;51.980;5.934;2023-10-08T11:53:01;19.10;76.00
38480;DHT22;62333;51.980;5.934;2023-10-08T11:55:29;19.10;75.80
38480;DHT22;62333;51.980;5.934;2023-10-08T11:57:55;19.00;75.70
38480;DHT22;62333;51.980;5.934;2023-10-08T12:00:21;19.00;75.90
38480;DHT22;62333;51.980;5.934;2023-10-08T12:02:52;19.00;75.90
38480;DHT22;62333;51.980;5.934;2023-10-08T12:05:23;19.00;76.00
38480;DHT22;62333;51.980;5.934;2023-10-08T12:07:51;19.00;76.00
38480;DHT22;62333;51.980;5.934;2023-10-08T12:10:20;19.10;76.00
38480;DHT22;62333;51.980;5.934;2023-10-08T12:12:51;19.10;75.90
38480;DHT22;62333;51.980;5.934;2023-10-08T12:15:25;19.00;76.00
38480;DHT22;62333;51.980;5.934;2023-10-08T12:18:04;19.00;76.20
38480;DHT22;62333;51.980;5.934;2023-10-08T12:20:48;19.10;76.30
38480;DHT22;62333;51.980;5.934;2023-10-08T12:23:14;19.10;76.30
38480;DHT22;62333;51.980;5.934;2023-10-08T12:28:18;19.10;76.40
38480;DHT22;62333;51.980;5.934;2023-10-08T12:30:45;19.10;76.40
38480;DHT22;62333;51.980;5.934;2023-10-08T12:33:11;19.10;76.60
38480;DHT22;62333;51.980;5.934;2023-10-08T12:35:42;19.00;76.80
38480;DHT22;62333;51.980;5.934;2023-10-08T12:38:08;19.00;77.20
38480;DHT22;62333;51.980;5.934;2023-10-08T12:40:35;19.00;77.00
38480;DHT22;62333;51.980;5.934;2023-10-08T12:43:14;18.90;77.30
38480;DHT22;62333;51.980;5.934;2023-10-08T12:45:45;18.90;77.50
38480;DHT22;62333;51.980;5.934;2023-10-08T12:48:26;19.00;77.50
38480;DHT22;62333;51.980;5.934;2023-10-08T12:50:56;18.90;77.50
38480;DHT22;62333;51.980;5.934;2023-10-08T12:53:27;18.90;77.70
38480;DHT22;62333;51.980;5.934;2023-10-08T12:56:02;18.90;77.90
38480;DHT22;62333;51.980;5.934;2023-10-08T12:58:32;19.00;78.00
38480;DHT22;62333;51.980;5.934;2023-10-08T13:01:05;19.00;78.00
38480;DHT22;62333;51.980;5.934;2023-10-08T13:03:32;18.90;78.10
38480;DHT22;62333;51.980;5.934;2023-10-08T13:05:59;18.90;78.40
38480;DHT22;62333;51.980;5.934;2023-10-08T13:08:31;18.80;78.50
38480;DHT22;62333;51.980;5.934;2023-10-08T13:10:58;18.80;78.60
38480;DHT22;62333;51.980;5.934;2023-10-08T13:13:27;18.90;78.90
38480;DHT22;62333;51.980;5.934;2023-10-08T13:15:52;18.80;78.90
38480;DHT22;62333;51.980;5.934;2023-10-08T13:18:22;18.90;79.10
38480;DHT22;62333;51.980;5.934;2023-10-08T13:20:51;18.90;79.10
38480;DHT22;62333;51.980;5.934;2023-10-08T13:23:17;19.00;79.20
38480;DHT22;62333;51.980;5.934;2023-10-08T13:25:44;19.00;79.10
38480;DHT22;62333;51.980;5.934;2023-10-08T13:28:12;19.00;79.20
38480;DHT22;62333;51.980;5.934;2023-10-08T13:30:37;18.90;79.20
38480;DHT22;62333;51.980;5.934;2023-10-08T13:33:03;18.90;79.30
38480;DHT22;62333;51.980;5.934;2023-10-08T13:35:29;18.90;79.40
38480;DHT22;62333;51.980;5.934;2023-10-08T13:37:55;19.00;79.50
38480;DHT22;62333;51.980;5.934;2023-10-08T13:40:21;19.00;79.60
38480;DHT22;62333;51.980;5.934;2023-10-08T13:42:58;19.00;79.60
38480;DHT22;62333;51.980;5.934;2023-10-08T13:45:24;19.10;79.60
38480;DHT22;62333;51.980;5.934;2023-10-08T13:47:55;19.00;79.70
38480;DHT22;62333;51.980;5.934;2023-10-08T13:50:22;19.00;79.90
38480;DHT22;62333;51.980;5.934;2023-10-08T13:52:47;19.00;80.00
38480;DHT22;62333;51.980;5.934;2023-10-08T13:55:13;19.00;80.10
38480;DHT22;62333;51.980;5.934;2023-10-08T13:57:42;19.00;80.00
38480;DHT22;62333;51.980;5.934;2023-10-08T14:00:08;19.00;80.00
38480;DHT22;62333;51.980;5.934;2023-10-08T14:02:41;19.00;80.10
38480;DHT22;62333;51.980;5.934;2023-10-08T14:05:08;19.00;80.30
38480;DHT22;62333;51.980;5.934;2023-10-08T14:07:35;19.00;80.30
38480;DHT22;62333;51.980;5.934;2023-10-08T14:10:01;19.00;80.50
38480;DHT22;62333;51.980;5.934;2023-10-08T14:12:34;19.00;80.50
38480;DHT22;62333;51.980;5.934;2023-10-08T14:15:01;18.90;80.70
38480;DHT22;62333;51.980;5.934;2023-10-08T14:17:32;19.00;80.90
38480;DHT22;62333;51.980;5.934;2023-10-08T14:20:14;19.00;81.00
38480;DHT22;62333;51.980;5.934;2023-10-08T14:22:40;18.90;81.10
38480;DHT22;62333;51.980;5.934;2023-10-08T14:25:09;19.00;81.10
38480;DHT22;62333;51.980;5.934;2023-10-08T14:27:39;19.00;81.10
38480;DHT22;62333;51.980;5.934;2023-10-08T14:30:17;18.90;81.30
38480;DHT22;62333;51.980;5.934;2023-10-08T14:32:47;18.90;81.50
38480;DHT22;62333;51.980;5.934;2023-10-08T14:35:13;18.90;81.80
38480;DHT22;62333;51.980;5.934;2023-10-08T14:37:58;18.90;81.80
38480;DHT22;62333;51.980;5.934;2023-10-08T14:40:43;18.90;81.80
38480;DHT22;62333;51.980;5.934;2023-10-08T14:43:27;18.90;82.00
38480;DHT22;62333;51.980;5.934;2023-10-08T14:45:57;18.80;82.20
38480;DHT22;62333;51.980;5.934;2023-10-08T14:48:24;18.90;82.20
38480;DHT22;62333;51.980;5.934;2023-10-08T14:50:50;18.80;82.30
38480;DHT22;62333;51.980;5.934;2023-10-08T14:53:16;18.80;82.40
38480;DHT22;62333;51.980;5.934;2023-10-08T14:55:42;18.90;82.40
38480;DHT22;62333;51.980;5.934;2023-10-08T14:58:08;18.90;82.40
38480;DHT22;62333;51.980;5.934;2023-10-08T15:00:34;18.90;82.20
38480;DHT22;62333;51.980;5.934;2023-10-08T15:03:04;18.90;82.20
38480;DHT22;62333;51.980;5.934;2023-10-08T15:05:29;18.90;82.30
38480;DHT22;62333;51.980;5.934;2023-10-08T15:07:56;18.90;82.30
38480;DHT22;62333;51.980;5.934;2023-10-08T15:10:22;18.90;82.30
38480;DHT22;62333;51.980;5.934;2023-10-08T15:12:48;18.90;82.20
38480;DHT22;62333;51.980;5.934;2023-10-08T15:15:15;19.00;82.20
38480;DHT22;62333;51.980;5.934;2023-10-08T15:17:46;19.00;82.00
38480;DHT22;62333;51.980;5.934;2023-10-08T15:20:13;19.00;81.90
38480;DHT22;62333;51.980;5.934;2023-10-08T15:22:46;19.00;82.00
38480;DHT22;62333;51.980;5.934;2023-10-08T15:25:14;19.00;82.00
38480;DHT22;62333;51.980;5.934;2023-10-08T15:27:42;19.00;82.00
38480;DHT22;62333;51.980;5.934;2023-10-08T15:30:11;18.90;82.00
38480;DHT22;62333;51.980;5.934;2023-10-08T15:32:41;18.90;82.00
38480;DHT22;62333;51.980;5.934;2023-10-08T15:35:10;18.90;81.90
38480;DHT22;62333;51.980;5.934;2023-10-08T15:37:42;18.90;81.90
38480;DHT22;62333;51.980;5.934;2023-10-08T15:40:09;18.90;81.80
38480;DHT22;62333;51.980;5.934;2023-10-08T15:42:44;18.80;82.00
38480;DHT22;62333;51.980;5.934;2023-10-08T15:45:10;18.80;82.00
38480;DHT22;62333;51.980;5.934;2023-10-08T15:47:38;18.80;82.10
38480;DHT22;62333;51.980;5.934;2023-10-08T15:50:05;18.80;82.00
38480;DHT22;62333;51.980;5.934;2023-10-08T15:52:31;18.90;82.00
38480;DHT22;62333;51.980;5.934;2023-10-08T15:54:57;18.90;82.00
38480;DHT22;62333;51.980;5.934;2023-10-08T15:57:23;18.90;81.90
38480;DHT22;62333;51.980;5.934;2023-10-08T15:59:49;18.90;81.80